createdAt,value
2019-01-31T00:02:39.487Z,6.95
2019-01-31T00:05:19.758Z,7.30
2019-01-31T00:08:09.395Z,6.65
2019-01-31T00:10:49.215Z,9.60
2019-01-31T00:13:26.418Z,6.65
2019-01-31T00:16:14.526Z,8.23
2019-01-31T00:18:48.983Z,5.45
2019-01-31T00:21:29.490Z,6.55
2019-01-31T00:24:09.634Z,4.37
2019-01-31T00:26:41.291Z,5.87
2019-01-31T00:29:12.927Z,6.50
2019-01-31T00:31:50.685Z,5.00
2019-01-31T00:34:43.345Z,4.90
2019-01-31T00:37:17.390Z,3.58
2019-01-31T00:40:01.106Z,5.15
2019-01-31T00:42:41.299Z,4.42
2019-01-31T00:45:24.551Z,3.33
2019-01-31T00:48:02.024Z,4.70
2019-01-31T00:50:57.406Z,5.75
2019-01-31T00:53:55.127Z,4.75
2019-01-31T00:56:38.653Z,5.97
2019-01-31T00:59:13.035Z,3.83
2019-01-31T01:02:01.061Z,4.45
2019-01-31T01:04:32.671Z,6.40
2019-01-31T01:07:22.454Z,3.37
2019-01-31T01:09:56.639Z,5.72
2019-01-31T01:12:43.274Z,4.10
2019-01-31T01:15:14.906Z,5.95
2019-01-31T01:17:52.163Z,3.62
2019-01-31T01:20:44.891Z,5.80
2019-01-31T01:23:25.301Z,4.62
2019-01-31T01:26:02.874Z,6.75
2019-01-31T01:28:40.103Z,5.55
2019-01-31T01:31:26.387Z,5.47
2019-01-31T01:33:58.023Z,3.90
2019-01-31T01:36:32.319Z,4.47
2019-01-31T01:39:20.072Z,3.55
2019-01-31T01:42:00.290Z,3.65
2019-01-31T01:44:52.836Z,3.45
2019-01-31T01:47:24.479Z,5.85
2019-01-31T01:49:58.734Z,3.72
2019-01-31T01:52:32.838Z,7.87
2019-01-31T01:55:07.419Z,5.80
2019-01-31T01:57:42.015Z,4.95
2019-01-31T02:00:16.203Z,8.23
2019-01-31T02:03:11.643Z,4.75
2019-01-31T02:05:55.181Z,6.70
2019-01-31T02:08:35.702Z,2.17
2019-01-31T02:11:27.959Z,3.45
2019-01-31T02:14:02.307Z,4.35
2019-01-31T02:16:51.705Z,3.58
2019-01-31T02:19:41.107Z,3.98
2019-01-31T02:22:21.595Z,2.22
2019-01-31T02:25:07.909Z,10.20
2019-01-31T02:28:05.171Z,2.87
2019-01-31T02:30:39.504Z,3.08
2019-01-31T02:33:27.423Z,3.08
2019-01-31T02:36:11.096Z,2.35
2019-01-31T02:39:04.974Z,3.20
2019-01-31T02:42:03.616Z,4.22
2019-01-31T02:44:54.685Z,2.45
2019-01-31T02:47:46.623Z,4.55
2019-01-31T02:50:36.307Z,3.50
2019-01-31T02:53:07.943Z,2.15
2019-01-31T02:55:42.392Z,5.87
2019-01-31T02:58:31.944Z,3.35
2019-01-31T03:01:12.506Z,3.02
2019-01-31T03:03:44.138Z,7.47
2019-01-31T03:06:33.663Z,2.50
2019-01-31T03:09:19.895Z,2.15
2019-01-31T03:12:00.428Z,2.65
2019-01-31T03:14:32.195Z,3.77
2019-01-31T03:17:20.055Z,3.35
2019-01-31T03:19:54.338Z,3.35
2019-01-31T03:22:42.193Z,3.33
2019-01-31T03:25:16.544Z,3.45
2019-01-31T03:28:02.821Z,2.30
2019-01-31T03:30:45.614Z,2.98
2019-01-31T03:33:33.367Z,2.42
2019-01-31T03:36:19.267Z,6.30
2019-01-31T03:39:08.855Z,2.33
2019-01-31T03:41:58.493Z,2.20
2019-01-31T03:44:32.641Z,4.75
2019-01-31T03:47:06.899Z,6.85
2019-01-31T03:49:43.918Z,3.20
2019-01-31T03:52:39.313Z,2.80
2019-01-31T03:55:42.323Z,2.08
2019-01-31T03:58:31.642Z,3.67
2019-01-31T04:01:28.647Z,4.12
2019-01-31T04:04:21.295Z,6.05
2019-01-31T04:06:49.883Z,2.20
2019-01-31T04:09:18.438Z,2.67
2019-01-31T04:11:47.027Z,8.30
2019-01-31T04:14:15.598Z,2.95
2019-01-31T04:16:44.187Z,5.53
2019-01-31T04:19:12.735Z,3.45
2019-01-31T04:21:41.316Z,6.20
2019-01-31T04:24:09.875Z,6.30
2019-01-31T04:26:38.458Z,6.67
2019-01-31T04:29:07.019Z,2.83
2019-01-31T04:31:35.610Z,2.20
2019-01-31T04:34:04.160Z,4.28
2019-01-31T04:36:32.753Z,4.22
2019-01-31T04:39:01.311Z,2.15
2019-01-31T04:41:29.896Z,2.35
2019-01-31T04:43:58.484Z,2.75
2019-01-31T04:46:27.057Z,9.48
2019-01-31T04:48:55.619Z,3.62
2019-01-31T04:51:24.199Z,3.50
2019-01-31T04:53:52.760Z,7.08
2019-01-31T04:56:21.328Z,4.95
2019-01-31T04:58:49.915Z,5.03
2019-01-31T05:01:18.476Z,3.58
2019-01-31T05:03:47.059Z,2.75
2019-01-31T05:06:15.614Z,5.35
2019-01-31T05:08:44.201Z,2.20
2019-01-31T05:11:12.764Z,10.32
2019-01-31T05:13:41.353Z,2.20
2019-01-31T05:16:09.978Z,5.30
2019-01-31T05:18:38.558Z,6.90
2019-01-31T05:21:07.120Z,4.55
2019-01-31T05:23:35.699Z,4.92
2019-01-31T05:26:04.322Z,4.62
2019-01-31T05:28:32.906Z,3.85
2019-01-31T05:31:01.471Z,5.85
2019-01-31T05:33:30.055Z,5.10
2019-01-31T05:35:58.615Z,5.08
2019-01-31T05:38:27.196Z,6.35
2019-01-31T05:40:56.081Z,3.83
2019-01-31T05:43:24.739Z,3.87
2019-01-31T05:45:53.299Z,2.80
2019-01-31T05:48:21.889Z,1.92
2019-01-31T05:50:50.451Z,5.53
2019-01-31T05:53:19.034Z,3.45
2019-01-31T05:55:47.590Z,2.72
2019-01-31T05:58:16.170Z,3.58
2019-01-31T06:00:44.725Z,7.30
2019-01-31T06:03:13.306Z,2.90
2019-01-31T06:05:41.875Z,3.15
2019-01-31T06:08:10.457Z,4.22
2019-01-31T06:10:39.016Z,7.15
2019-01-31T06:13:07.594Z,3.95
2019-01-31T06:15:36.165Z,5.35
2019-01-31T06:18:04.989Z,2.15
2019-01-31T06:20:33.560Z,4.10
2019-01-31T06:23:02.148Z,2.92
2019-01-31T06:25:30.704Z,3.30
2019-01-31T06:27:59.354Z,3.75
2019-01-31T06:30:27.923Z,10.23
2019-01-31T06:32:56.519Z,3.08
2019-01-31T06:35:25.080Z,6.00
2019-01-31T06:37:53.663Z,5.30
2019-01-31T06:40:22.297Z,7.75
2019-01-31T06:42:50.955Z,7.72
2019-01-31T06:45:21.450Z,5.25
2019-01-31T06:47:50.110Z,5.15
2019-01-31T06:50:18.743Z,5.70
2019-01-31T06:52:47.403Z,5.22
2019-01-31T06:55:16.110Z,2.67
2019-01-31T06:57:44.695Z,4.55
2019-01-31T07:00:16.260Z,4.90
2019-01-31T07:02:44.846Z,5.12
2019-01-31T07:05:13.479Z,4.03
2019-01-31T07:07:42.070Z,6.85
2019-01-31T07:10:16.259Z,5.90
2019-01-31T07:12:44.838Z,6.72
2019-01-31T07:15:13.746Z,6.65
2019-01-31T07:17:42.408Z,6.80
2019-01-31T07:20:16.342Z,3.77
2019-01-31T07:22:45.002Z,5.20
2019-01-31T07:25:16.475Z,8.50
2019-01-31T07:27:45.059Z,14.43
2019-01-31T07:30:15.958Z,11.35
2019-01-31T07:32:44.548Z,6.00
2019-01-31T07:35:14.354Z,5.30
2019-01-31T07:37:43.088Z,11.20
2019-01-31T07:40:14.291Z,6.40
2019-01-31T07:42:42.859Z,11.00
2019-01-31T07:45:17.063Z,6.20
2019-01-31T07:47:45.647Z,7.37
2019-01-31T07:50:16.548Z,10.78
2019-01-31T07:52:45.106Z,9.60
2019-01-31T07:55:13.926Z,6.12
2019-01-31T07:57:42.496Z,4.78
2019-01-31T08:00:13.625Z,6.58
2019-01-31T08:02:42.250Z,4.33
2019-01-31T08:05:14.075Z,5.85
2019-01-31T08:07:42.715Z,4.03
2019-01-31T08:10:17.162Z,7.72
2019-01-31T08:12:45.804Z,14.73
2019-01-31T08:15:17.527Z,15.35
2019-01-31T08:17:46.162Z,27.82
2019-01-31T08:20:16.795Z,19.15
2019-01-31T08:22:45.535Z,18.30
2019-01-31T08:25:19.299Z,28.83
2019-01-31T08:27:48.506Z,19.95
2019-01-31T08:30:38.008Z,18.23
2019-01-31T08:33:06.719Z,13.58
2019-01-31T08:35:35.284Z,11.63
2019-01-31T08:38:04.220Z,9.70
2019-01-31T08:40:32.978Z,13.95
2019-01-31T08:43:01.547Z,8.90
2019-01-31T08:45:30.136Z,7.53
2019-01-31T08:47:58.708Z,7.25
2019-01-31T08:50:30.935Z,9.40
2019-01-31T08:52:59.498Z,7.00
2019-01-31T08:55:28.078Z,8.50
2019-01-31T08:57:56.716Z,10.68
2019-01-31T09:00:27.702Z,7.50
2019-01-31T09:02:56.335Z,11.12
2019-01-31T09:05:25.051Z,4.70
2019-01-31T09:07:53.611Z,3.72
2019-01-31T09:10:36.574Z,8.08
2019-01-31T09:13:06.975Z,4.90
2019-01-31T09:15:35.559Z,6.08
2019-01-31T09:18:04.455Z,7.75
2019-01-31T09:20:44.920Z,4.67
2019-01-31T09:23:24.623Z,6.72
2019-01-31T09:26:10.989Z,5.85
2019-01-31T09:28:54.270Z,4.80
2019-01-31T09:31:37.719Z,2.52
2019-01-31T09:34:12.134Z,5.80
2019-01-31T09:37:07.042Z,4.83
2019-01-31T09:39:43.932Z,9.43
2019-01-31T09:42:26.796Z,3.52
2019-01-31T09:45:04.927Z,6.95
2019-01-31T09:47:36.662Z,4.70
2019-01-31T09:50:17.043Z,3.67
2019-01-31T09:53:05.923Z,5.60
2019-01-31T09:56:04.303Z,3.15
2019-01-31T09:58:47.683Z,8.13
2019-01-31T10:01:21.883Z,7.83
2019-01-31T10:03:58.746Z,3.92
2019-01-31T10:06:33.262Z,2.90
2019-01-31T10:09:10.781Z,6.80
2019-01-31T10:12:04.662Z,4.78
2019-01-31T10:14:39.296Z,3.25
2019-01-31T10:17:27.188Z,5.22
2019-01-31T10:20:04.795Z,6.55
2019-01-31T10:22:36.568Z,4.03
2019-01-31T10:25:23.019Z,5.87
2019-01-31T10:28:09.259Z,3.55
2019-01-31T10:30:43.539Z,4.45
2019-01-31T10:33:29.558Z,5.78
2019-01-31T10:36:05.681Z,5.00
2019-01-31T10:38:39.755Z,6.42
2019-01-31T10:41:30.829Z,5.03
2019-01-31T10:44:25.998Z,5.25
2019-01-31T10:47:03.158Z,8.70
2019-01-31T10:50:07.486Z,4.03
2019-01-31T10:53:02.987Z,6.62
2019-01-31T10:55:34.643Z,4.42
2019-01-31T10:58:08.923Z,2.47
2019-01-31T11:00:52.155Z,5.40
2019-01-31T11:03:38.426Z,4.67
2019-01-31T11:06:10.085Z,2.70
2019-01-31T11:09:08.003Z,2.02
2019-01-31T11:11:42.193Z,6.67
2019-01-31T11:14:25.436Z,3.72
2019-01-31T11:17:16.226Z,3.83
2019-01-31T11:19:47.887Z,1.77
2019-01-31T11:22:22.191Z,6.03
2019-01-31T11:25:17.611Z,4.50
2019-01-31T11:28:01.162Z,2.60
2019-01-31T11:30:35.509Z,2.45
2019-01-31T11:33:35.487Z,4.05
2019-01-31T11:36:34.164Z,5.15
2019-01-31T11:39:13.132Z,7.50
2019-01-31T11:42:01.248Z,3.08
2019-01-31T11:44:49.133Z,3.12
2019-01-31T11:47:29.534Z,4.10
2019-01-31T11:50:25.174Z,4.62
2019-01-31T11:53:01.165Z,2.95
2019-01-31T11:55:59.907Z,4.50
2019-01-31T11:58:40.230Z,4.37
2019-01-31T12:01:09.847Z,2.52
2019-01-31T12:03:38.402Z,4.87
2019-01-31T12:06:06.997Z,5.35
2019-01-31T12:08:35.555Z,5.35
2019-01-31T12:11:04.279Z,5.92
2019-01-31T12:13:32.847Z,5.83
2019-01-31T12:16:01.423Z,5.65
2019-01-31T12:18:30.055Z,5.20
2019-01-31T12:20:58.638Z,6.90
2019-01-31T12:23:27.199Z,3.95
2019-01-31T12:25:55.779Z,4.95
2019-01-31T12:28:24.339Z,7.15
2019-01-31T12:30:52.919Z,4.58
2019-01-31T12:33:21.548Z,3.62
2019-01-31T12:35:50.130Z,3.77
2019-01-31T12:38:18.695Z,10.15
2019-01-31T12:40:47.271Z,8.98
2019-01-31T12:43:15.826Z,5.12
2019-01-31T12:45:44.403Z,5.62
2019-01-31T12:48:12.956Z,4.33
2019-01-31T12:50:41.687Z,5.35
2019-01-31T12:53:10.235Z,6.67
2019-01-31T12:55:38.886Z,5.37
2019-01-31T12:58:07.520Z,3.50
2019-01-31T13:00:36.170Z,7.08
2019-01-31T13:03:04.902Z,3.58
2019-01-31T13:05:33.550Z,5.25
2019-01-31T13:08:02.120Z,3.55
2019-01-31T13:10:30.699Z,5.10
2019-01-31T13:12:59.495Z,3.35
2019-01-31T13:15:29.466Z,1.90
2019-01-31T13:17:58.185Z,3.22
2019-01-31T13:20:26.750Z,6.33
2019-01-31T13:22:56.128Z,8.53
2019-01-31T13:25:25.960Z,3.60
2019-01-31T13:27:54.686Z,5.80
2019-01-31T13:30:24.087Z,6.17
2019-01-31T13:32:54.817Z,5.78
2019-01-31T13:35:23.439Z,5.25
2019-01-31T13:37:52.019Z,6.03
2019-01-31T13:40:23.184Z,8.15
2019-01-31T13:42:52.203Z,3.20
2019-01-31T13:45:28.837Z,5.33
2019-01-31T13:47:59.546Z,7.37
2019-01-31T13:50:28.175Z,4.12
2019-01-31T13:52:56.758Z,7.62
2019-01-31T13:55:30.211Z,5.83
2019-01-31T13:57:58.860Z,5.95
2019-01-31T14:00:27.482Z,5.95
2019-01-31T14:02:56.235Z,4.65
2019-01-31T14:05:25.060Z,7.37
2019-01-31T14:07:54.482Z,5.50
2019-01-31T14:10:27.431Z,5.67
2019-01-31T14:12:56.075Z,7.42
2019-01-31T14:15:34.170Z,8.35
2019-01-31T14:18:02.959Z,5.35
2019-01-31T14:20:31.619Z,5.20
2019-01-31T14:23:00.275Z,12.07
2019-01-31T14:25:28.975Z,12.07
2019-01-31T14:27:57.561Z,10.10
2019-01-31T14:30:29.201Z,7.55
2019-01-31T14:32:58.410Z,13.48
2019-01-31T14:35:27.506Z,9.28
2019-01-31T14:37:56.162Z,10.80
2019-01-31T14:40:25.658Z,8.15
2019-01-31T14:42:54.305Z,10.35
2019-01-31T14:45:22.866Z,8.65
2019-01-31T14:47:51.457Z,8.73
2019-01-31T14:50:23.083Z,8.08
2019-01-31T14:52:51.736Z,9.48
2019-01-31T14:55:20.439Z,6.05
2019-01-31T14:57:49.151Z,7.55
2019-01-31T15:00:20.359Z,7.50
2019-01-31T15:02:48.935Z,9.40
2019-01-31T15:05:17.826Z,6.40
2019-01-31T15:07:46.579Z,6.55
2019-01-31T15:10:18.051Z,13.30
2019-01-31T15:12:46.707Z,13.43
2019-01-31T15:15:16.481Z,15.28
2019-01-31T15:17:45.163Z,12.53
2019-01-31T15:20:22.240Z,11.57
2019-01-31T15:22:52.523Z,16.35
2019-01-31T15:25:22.362Z,21.68
2019-01-31T15:27:51.223Z,24.40
2019-01-31T15:30:28.239Z,16.80
2019-01-31T15:32:57.451Z,14.95
2019-01-31T15:35:26.083Z,19.75
2019-01-31T15:37:54.667Z,23.90
2019-01-31T15:40:29.001Z,16.48
2019-01-31T15:42:57.659Z,20.62
2019-01-31T15:45:26.225Z,19.98
2019-01-31T15:47:54.814Z,21.77
2019-01-31T15:50:23.458Z,24.90
2019-01-31T15:52:52.047Z,25.20
2019-01-31T15:55:23.755Z,21.20
2019-01-31T15:57:52.548Z,30.35
2019-01-31T16:00:42.557Z,28.35
2019-01-31T16:03:13.927Z,25.23
2019-01-31T16:05:42.679Z,27.35
2019-01-31T16:08:11.938Z,26.55
2019-01-31T16:10:40.733Z,34.90
2019-01-31T16:13:09.922Z,35.38
2019-01-31T16:15:39.350Z,33.78
2019-01-31T16:18:10.057Z,28.27
2019-01-31T16:20:39.230Z,27.02
2019-01-31T16:23:08.807Z,27.13
2019-01-31T16:25:37.327Z,29.30
2019-01-31T16:28:07.306Z,26.00
2019-01-31T16:30:36.202Z,28.92
2019-01-31T16:33:05.671Z,32.30
2019-01-31T16:35:34.727Z,40.48
2019-01-31T16:38:03.551Z,39.08
2019-01-31T16:40:32.115Z,26.20
2019-01-31T16:43:00.775Z,31.90
2019-01-31T16:45:31.158Z,33.40
2019-01-31T16:48:00.219Z,29.32
2019-01-31T16:50:31.247Z,23.30
2019-01-31T16:53:01.863Z,29.60
2019-01-31T16:55:31.071Z,24.45
2019-01-31T16:58:00.000Z,22.98
2019-01-31T17:00:31.011Z,31.85
2019-01-31T17:02:59.676Z,27.62
2019-01-31T17:05:30.951Z,30.48
2019-01-31T17:07:59.879Z,24.63
2019-01-31T17:10:28.823Z,25.02
2019-01-31T17:12:57.578Z,24.32
2019-01-31T17:15:26.491Z,26.97
2019-01-31T17:17:55.083Z,57.98
2019-01-31T17:20:26.592Z,32.25
2019-01-31T17:22:55.181Z,29.67
2019-01-31T17:25:23.822Z,30.52
2019-01-31T17:27:52.419Z,27.48
2019-01-31T17:30:25.960Z,31.87
2019-01-31T17:32:54.543Z,30.32
2019-01-31T17:35:23.103Z,40.15
2019-01-31T17:37:51.858Z,31.17
2019-01-31T17:40:35.219Z,36.08
2019-01-31T17:43:04.175Z,39.15
2019-01-31T17:45:32.757Z,30.90
2019-01-31T17:48:01.409Z,44.33
2019-01-31T17:50:29.980Z,35.05
2019-01-31T17:52:58.551Z,32.45
2019-01-31T17:55:28.093Z,41.18
2019-01-31T17:57:56.686Z,36.48
2019-01-31T18:00:38.260Z,29.60
2019-01-31T18:03:07.835Z,31.40
2019-01-31T18:05:36.682Z,43.33
2019-01-31T18:08:09.049Z,46.45
2019-01-31T18:10:36.331Z,38.20
2019-01-31T18:13:05.682Z,42.33
2019-01-31T18:15:41.686Z,42.62
2019-01-31T18:18:05.397Z,41.18
2019-01-31T18:20:33.991Z,39.53
2019-01-31T18:23:02.562Z,38.20
2019-01-31T18:25:31.168Z,40.80
2019-01-31T18:27:59.741Z,35.25
2019-01-31T18:30:34.202Z,32.88
2019-01-31T18:33:02.771Z,25.45
2019-01-31T18:35:31.430Z,41.15
2019-01-31T18:38:00.003Z,26.95
2019-01-31T18:40:33.838Z,34.60
2019-01-31T18:43:02.422Z,42.10
2019-01-31T18:45:32.944Z,49.63
2019-01-31T18:48:01.585Z,33.50
2019-01-31T18:50:35.411Z,23.27
2019-01-31T18:53:04.614Z,25.90
2019-01-31T18:55:33.283Z,26.55
2019-01-31T18:58:01.921Z,28.57
2019-01-31T19:00:32.954Z,24.98
2019-01-31T19:03:01.660Z,26.65
2019-01-31T19:05:30.625Z,26.52
2019-01-31T19:07:59.263Z,28.60
2019-01-31T19:10:27.926Z,33.92
2019-01-31T19:12:56.587Z,27.10
2019-01-31T19:15:26.718Z,35.95
2019-01-31T19:18:05.499Z,51.40
2019-01-31T19:20:30.063Z,103.92
2019-01-31T19:23:03.462Z,77.97
2019-01-31T19:25:32.467Z,59.10
2019-01-31T19:28:01.367Z,47.55
2019-01-31T19:30:35.172Z,54.30
2019-01-31T19:33:04.882Z,57.53
2019-01-31T19:35:33.610Z,61.45
2019-01-31T19:38:02.641Z,57.90
2019-01-31T19:40:36.054Z,46.20
2019-01-31T19:43:05.065Z,51.35
2019-01-31T19:45:36.966Z,68.92
2019-01-31T19:48:05.875Z,55.23
2019-01-31T19:50:34.540Z,46.37
2019-01-31T19:53:03.379Z,58.38
2019-01-31T19:55:32.040Z,58.30
2019-01-31T19:58:00.613Z,63.02
2019-01-31T20:00:29.211Z,67.05
2019-01-31T20:02:57.853Z,70.17
2019-01-31T20:05:26.596Z,77.60
2019-01-31T20:07:55.475Z,69.62
2019-01-31T20:10:31.455Z,74.90
2019-01-31T20:13:00.345Z,63.90
2019-01-31T20:15:29.427Z,80.75
2019-01-31T20:17:58.069Z,75.03
2019-01-31T20:20:28.505Z,63.25
2019-01-31T20:22:57.812Z,72.87
2019-01-31T20:25:27.543Z,73.05
2019-01-31T20:27:56.183Z,87.08
2019-01-31T20:30:30.499Z,81.57
2019-01-31T20:33:00.017Z,71.45
2019-01-31T20:35:28.881Z,73.87
2019-01-31T20:37:57.452Z,66.75
2019-01-31T20:40:34.460Z,70.37
2019-01-31T20:43:03.163Z,74.22
2019-01-31T20:45:31.995Z,73.20
2019-01-31T20:48:00.594Z,79.25
2019-01-31T20:50:34.079Z,107.10
2019-01-31T20:53:02.790Z,88.47
2019-01-31T20:55:31.519Z,89.45
2019-01-31T20:58:00.091Z,76.62
2019-01-31T21:00:32.554Z,68.05
2019-01-31T21:03:01.272Z,66.72
2019-01-31T21:05:29.926Z,70.10
2019-01-31T21:07:58.499Z,71.28
2019-01-31T21:10:27.166Z,77.92
2019-01-31T21:12:55.868Z,71.92
2019-01-31T21:15:25.899Z,69.58
2019-01-31T21:17:54.643Z,79.82
2019-01-31T21:20:26.510Z,79.07
2019-01-31T21:22:55.588Z,83.72
2019-01-31T21:25:24.311Z,82.95
2019-01-31T21:27:52.949Z,84.28
2019-01-31T21:30:32.939Z,77.62
2019-01-31T21:33:01.580Z,69.90
2019-01-31T21:35:30.619Z,61.08
2019-01-31T21:37:59.355Z,74.12
2019-01-31T21:40:30.491Z,75.80
2019-01-31T21:42:59.118Z,67.15
2019-01-31T21:45:27.957Z,78.62
2019-01-31T21:47:56.531Z,65.97
2019-01-31T21:50:27.830Z,70.32
2019-01-31T21:52:56.584Z,72.97
2019-01-31T21:55:25.286Z,65.37
2019-01-31T21:57:53.959Z,73.40
2019-01-31T22:00:31.068Z,65.20
2019-01-31T22:02:59.787Z,68.00
2019-01-31T22:05:28.494Z,74.72
2019-01-31T22:07:57.250Z,57.93
2019-01-31T22:10:25.883Z,57.17
2019-01-31T22:12:54.479Z,62.33
2019-01-31T22:15:27.938Z,65.10
2019-01-31T22:17:59.803Z,66.00
2019-01-31T22:20:26.874Z,63.35
2019-01-31T22:22:55.539Z,72.25
2019-01-31T22:25:24.854Z,64.67
2019-01-31T22:27:53.585Z,65.45
2019-01-31T22:30:30.456Z,62.30
2019-01-31T22:32:59.055Z,65.45
2019-01-31T22:35:27.886Z,49.27
2019-01-31T22:37:56.549Z,67.97
2019-01-31T22:40:25.262Z,67.55
2019-01-31T22:42:53.851Z,62.48
2019-01-31T22:45:25.620Z,64.45
2019-01-31T22:47:54.386Z,63.92
2019-01-31T22:50:23.787Z,61.92
2019-01-31T22:52:52.520Z,68.87
2019-01-31T22:55:25.785Z,64.90
2019-01-31T22:57:54.919Z,63.35
2019-01-31T23:00:45.670Z,53.98
2019-01-31T23:03:14.396Z,59.53
2019-01-31T23:05:43.208Z,64.58
2019-01-31T23:08:11.868Z,56.90
2019-01-31T23:10:40.537Z,57.73
2019-01-31T23:13:09.194Z,72.32
2019-01-31T23:15:37.766Z,58.87
2019-01-31T23:18:06.600Z,62.00
2019-01-31T23:20:35.242Z,61.05
2019-01-31T23:23:03.830Z,66.87
2019-01-31T23:25:39.651Z,75.08
2019-01-31T23:28:02.640Z,65.50
2019-01-31T23:30:31.211Z,58.50
2019-01-31T23:32:59.804Z,61.60
2019-01-31T23:35:28.379Z,65.20
2019-01-31T23:37:56.975Z,61.20
2019-01-31T23:40:25.552Z,56.28
2019-01-31T23:42:54.142Z,64.92
2019-01-31T23:45:22.775Z,56.75
2019-01-31T23:47:51.366Z,63.00
2019-01-31T23:50:19.952Z,57.67
2019-01-31T23:52:48.530Z,56.42
2019-01-31T23:55:17.575Z,61.95
2019-01-31T23:57:46.158Z,59.83
